createdAt,value
2019-02-18T00:00:43.188Z,87.03
2019-02-18T00:03:13.472Z,83.60
2019-02-18T00:05:44.741Z,112.33
2019-02-18T00:08:15.060Z,111.10
2019-02-18T00:10:45.331Z,101.10
2019-02-18T00:13:15.658Z,101.07
2019-02-18T00:15:47.477Z,104.23
2019-02-18T00:18:17.807Z,109.87
2019-02-18T00:20:48.104Z,118.87
2019-02-18T00:23:18.412Z,113.40
2019-02-18T00:25:48.710Z,126.77
2019-02-18T00:28:19.980Z,125.27
2019-02-18T00:30:50.286Z,134.50
2019-02-18T00:33:20.627Z,146.57
2019-02-18T00:35:51.032Z,152.40
2019-02-18T00:38:21.366Z,146.53
2019-02-18T00:40:51.652Z,157.97
2019-02-18T00:43:21.962Z,181.77
2019-02-18T00:45:52.329Z,162.43
2019-02-18T00:48:22.609Z,163.80
2019-02-18T00:50:52.912Z,186.20
2019-02-18T00:53:23.204Z,191.37
2019-02-18T00:55:53.651Z,207.70
2019-02-18T00:58:23.948Z,203.03
2019-02-18T01:00:54.256Z,182.23
2019-02-18T01:03:24.570Z,168.03
2019-02-18T01:05:57.879Z,162.17
2019-02-18T01:08:28.181Z,173.00
2019-02-18T01:10:58.524Z,163.10
2019-02-18T01:13:28.774Z,179.20
2019-02-18T01:15:59.061Z,166.73
2019-02-18T01:18:29.383Z,181.07
2019-02-18T01:21:01.235Z,172.87
2019-02-18T01:23:33.186Z,175.57
2019-02-18T01:26:04.990Z,166.77
2019-02-18T01:28:36.824Z,157.63
2019-02-18T01:31:08.620Z,159.83
2019-02-18T01:33:40.543Z,149.47
2019-02-18T01:36:12.395Z,153.90
2019-02-18T01:38:43.265Z,154.60
2019-02-18T01:41:13.565Z,167.43
2019-02-18T01:43:43.853Z,185.07
2019-02-18T01:46:14.191Z,157.40
2019-02-18T01:48:44.496Z,149.80
2019-02-18T01:51:14.919Z,154.93
2019-02-18T01:53:45.218Z,161.60
2019-02-18T01:56:15.518Z,157.87
2019-02-18T01:58:45.894Z,153.43
2019-02-18T02:01:16.311Z,148.40
2019-02-18T02:03:46.584Z,154.57
2019-02-18T02:06:16.887Z,144.77
2019-02-18T02:08:47.163Z,146.13
2019-02-18T02:11:17.456Z,156.17
2019-02-18T02:13:47.783Z,151.87
2019-02-18T02:16:18.077Z,156.87
2019-02-18T02:18:48.360Z,152.07
2019-02-18T02:21:18.647Z,147.93
2019-02-18T02:23:48.931Z,144.40
2019-02-18T02:26:19.227Z,138.10
2019-02-18T02:28:49.532Z,131.47
2019-02-18T02:31:19.863Z,132.33
2019-02-18T02:33:50.145Z,140.43
2019-02-18T02:36:20.442Z,135.73
2019-02-18T02:38:50.740Z,139.37
2019-02-18T02:41:21.022Z,142.80
2019-02-18T02:43:51.325Z,132.77
2019-02-18T02:46:21.603Z,136.90
2019-02-18T02:48:52.937Z,125.73
2019-02-18T02:51:23.235Z,135.17
2019-02-18T02:53:53.536Z,133.13
2019-02-18T02:56:23.905Z,121.73
2019-02-18T02:58:54.191Z,118.63
2019-02-18T03:01:24.497Z,116.00
2019-02-18T03:03:54.761Z,113.87
2019-02-18T03:06:25.063Z,120.50
2019-02-18T03:08:55.354Z,119.40
2019-02-18T03:11:25.752Z,127.33
2019-02-18T03:13:56.047Z,125.40
2019-02-18T03:16:26.344Z,122.60
2019-02-18T03:18:56.825Z,127.83
2019-02-18T03:21:27.122Z,125.40
2019-02-18T03:23:57.399Z,129.53
2019-02-18T03:26:27.695Z,140.27
2019-02-18T03:31:51.180Z,112.60
2019-02-18T03:34:24.704Z,119.10
2019-02-18T03:36:55.055Z,119.30
2019-02-18T03:39:25.332Z,116.70
2019-02-18T03:41:55.626Z,126.10
2019-02-18T03:44:25.901Z,132.47
2019-02-18T03:46:56.196Z,130.83
2019-02-18T03:49:26.495Z,131.10
2019-02-18T03:51:56.769Z,134.50
2019-02-18T03:54:27.063Z,134.20
2019-02-18T03:56:57.364Z,143.77
2019-02-18T03:59:28.636Z,147.20
2019-02-18T04:01:58.910Z,185.37
2019-02-18T04:04:29.204Z,190.10
2019-02-18T04:06:59.480Z,151.73
2019-02-18T04:09:29.828Z,137.50
2019-02-18T04:12:00.150Z,121.43
2019-02-18T04:14:30.785Z,118.60
2019-02-18T04:17:01.149Z,161.17
2019-02-18T04:19:31.408Z,155.17
2019-02-18T04:22:01.773Z,158.83
2019-02-18T04:24:32.105Z,153.37
2019-02-18T04:27:02.464Z,155.97
2019-02-18T04:29:32.760Z,196.73
2019-02-18T04:32:03.033Z,186.87
2019-02-18T04:34:33.329Z,197.40
2019-02-18T04:37:03.716Z,192.93
2019-02-18T04:39:33.999Z,188.93
2019-02-18T04:42:04.286Z,173.90
2019-02-18T04:44:34.585Z,174.73
2019-02-18T04:47:04.877Z,170.67
2019-02-18T04:49:35.297Z,164.80
2019-02-18T04:52:05.640Z,187.93
2019-02-18T04:54:35.950Z,179.20
2019-02-18T04:57:06.654Z,169.87
2019-02-18T04:59:36.958Z,176.37
2019-02-18T05:02:07.257Z,177.33
2019-02-18T05:04:37.550Z,180.37
2019-02-18T05:07:07.876Z,306.30
2019-02-18T05:09:39.913Z,220.17
2019-02-18T05:12:10.139Z,176.33
2019-02-18T05:14:40.445Z,193.93
2019-02-18T05:17:14.761Z,195.30
2019-02-18T05:19:45.043Z,197.17
2019-02-18T05:22:15.335Z,231.40
2019-02-18T05:24:45.635Z,190.70
2019-02-18T05:27:15.954Z,162.80
2019-02-18T05:29:46.251Z,167.23
2019-02-18T05:32:16.530Z,156.03
2019-02-18T05:34:46.816Z,174.57
2019-02-18T05:37:17.123Z,246.33
2019-02-18T05:39:47.437Z,218.27
2019-02-18T05:42:17.842Z,197.50
2019-02-18T05:44:48.398Z,287.23
2019-02-18T05:47:18.722Z,244.30
2019-02-18T05:49:48.995Z,237.27
2019-02-18T05:52:19.453Z,208.97
2019-02-18T05:54:49.718Z,212.87
2019-02-18T05:57:22.901Z,214.03
2019-02-18T05:59:53.657Z,182.40
2019-02-18T06:02:24.048Z,164.73
2019-02-18T06:04:54.329Z,170.40
2019-02-18T06:07:24.694Z,144.87
2019-02-18T06:09:56.172Z,143.00
2019-02-18T06:12:26.508Z,143.93
2019-02-18T06:14:57.039Z,159.37
2019-02-18T06:17:27.329Z,151.10
2019-02-18T06:19:57.813Z,152.17
2019-02-18T06:22:28.228Z,140.97
2019-02-18T06:24:58.599Z,143.63
2019-02-18T06:27:28.876Z,137.30
2019-02-18T06:29:59.200Z,143.23
2019-02-18T06:32:29.472Z,151.50
2019-02-18T06:34:59.822Z,140.03
2019-02-18T06:37:30.761Z,147.20
2019-02-18T06:40:01.437Z,152.20
2019-02-18T06:42:31.824Z,191.20
2019-02-18T06:45:03.970Z,182.83
2019-02-18T06:47:34.991Z,193.00
2019-02-18T06:50:07.998Z,187.77
2019-02-18T06:52:39.115Z,174.83
2019-02-18T06:55:09.506Z,178.07
2019-02-18T06:57:41.661Z,183.60
2019-02-18T07:00:13.643Z,200.87
2019-02-18T07:02:45.583Z,162.10
2019-02-18T07:05:17.751Z,151.23
2019-02-18T07:07:55.670Z,141.50
2019-02-18T07:10:27.605Z,145.53
2019-02-18T07:12:57.963Z,138.13
2019-02-18T07:15:28.262Z,121.53
2019-02-18T07:18:00.189Z,128.13
2019-02-18T07:20:30.510Z,136.47
2019-02-18T07:23:00.820Z,126.30
2019-02-18T07:25:31.152Z,138.53
2019-02-18T07:28:01.460Z,126.83
2019-02-18T07:30:31.767Z,131.87
2019-02-18T07:33:02.033Z,132.53
2019-02-18T07:35:32.336Z,125.60
2019-02-18T07:38:02.623Z,134.77
2019-02-18T07:40:32.984Z,141.03
2019-02-18T07:43:03.224Z,133.43
2019-02-18T07:45:33.505Z,144.87
2019-02-18T07:48:03.821Z,147.37
2019-02-18T07:50:34.144Z,138.43
2019-02-18T07:53:05.420Z,156.20
2019-02-18T07:55:35.717Z,195.73
2019-02-18T07:58:07.063Z,140.73
2019-02-18T08:00:37.390Z,170.70
2019-02-18T08:03:07.690Z,165.83
2019-02-18T08:05:37.977Z,222.63
2019-02-18T08:08:08.294Z,181.23
2019-02-18T08:10:38.584Z,216.63
2019-02-18T08:13:08.879Z,177.60
2019-02-18T08:15:39.168Z,162.10
2019-02-18T08:18:09.463Z,155.27
2019-02-18T08:20:39.754Z,159.13
2019-02-18T08:23:10.054Z,151.63
2019-02-18T08:25:40.771Z,151.83
2019-02-18T08:28:11.056Z,143.70
2019-02-18T08:30:41.357Z,144.83
2019-02-18T08:33:11.654Z,128.53
2019-02-18T08:35:41.953Z,127.00
2019-02-18T08:38:12.258Z,140.60
2019-02-18T08:40:42.527Z,135.43
2019-02-18T08:43:12.836Z,127.43
2019-02-18T08:45:43.121Z,130.70
2019-02-18T08:48:14.417Z,131.13
2019-02-18T08:50:44.718Z,113.80
2019-02-18T08:53:15.040Z,120.20
2019-02-18T08:55:45.475Z,115.10
2019-02-18T08:58:15.804Z,113.70
2019-02-18T09:00:46.075Z,116.17
2019-02-18T09:03:16.402Z,108.97
2019-02-18T09:05:46.725Z,112.17
2019-02-18T09:08:17.018Z,104.23
2019-02-18T09:10:47.325Z,110.90
2019-02-18T09:13:17.641Z,114.10
2019-02-18T09:16:00.026Z,102.57
2019-02-18T09:18:26.024Z,102.80
2019-02-18T09:20:56.350Z,101.30
2019-02-18T09:23:37.317Z,103.03
2019-02-18T09:26:07.616Z,101.63
2019-02-18T09:28:37.915Z,97.77
2019-02-18T09:31:08.373Z,104.70
2019-02-18T09:33:38.688Z,101.77
2019-02-18T09:36:08.987Z,103.63
2019-02-18T09:38:39.290Z,100.83
2019-02-18T09:41:09.629Z,94.67
2019-02-18T09:43:40.240Z,89.57
2019-02-18T09:46:10.537Z,77.47
2019-02-18T09:48:40.836Z,87.20
2019-02-18T09:51:11.111Z,84.47
2019-02-18T09:53:41.414Z,85.37
2019-02-18T09:56:11.708Z,79.33
2019-02-18T09:58:41.987Z,75.43
2019-02-18T10:01:12.288Z,81.60
2019-02-18T10:03:42.590Z,73.87
2019-02-18T10:06:12.899Z,82.83
2019-02-18T10:08:43.228Z,72.77
2019-02-18T10:11:13.525Z,67.33
2019-02-18T10:13:43.819Z,67.27
2019-02-18T10:16:14.122Z,67.73
2019-02-18T10:18:44.416Z,73.60
2019-02-18T10:21:14.718Z,67.43
2019-02-18T10:23:44.995Z,69.33
2019-02-18T10:26:15.300Z,65.20
2019-02-18T10:28:45.589Z,62.23
2019-02-18T10:31:15.869Z,70.03
2019-02-18T10:33:46.162Z,63.53
2019-02-18T10:36:16.741Z,67.17
2019-02-18T10:38:47.015Z,61.73
2019-02-18T10:41:19.234Z,64.30
2019-02-18T10:43:49.296Z,69.87
2019-02-18T10:46:19.603Z,65.57
2019-02-18T10:48:49.887Z,65.83
2019-02-18T10:51:20.273Z,62.13
2019-02-18T10:53:50.596Z,62.30
2019-02-18T10:56:20.909Z,61.03
2019-02-18T10:58:51.632Z,58.50
2019-02-18T11:01:21.932Z,63.23
2019-02-18T11:03:52.204Z,64.93
2019-02-18T11:06:23.219Z,68.23
2019-02-18T11:08:53.515Z,56.53
2019-02-18T11:11:23.814Z,61.43
2019-02-18T11:13:54.116Z,62.40
2019-02-18T11:16:24.418Z,59.00
2019-02-18T11:18:56.245Z,61.67
2019-02-18T11:21:26.534Z,60.13
2019-02-18T11:23:56.821Z,69.43
2019-02-18T11:26:27.600Z,57.20
2019-02-18T11:28:57.953Z,63.63
2019-02-18T11:31:28.618Z,64.10
2019-02-18T11:33:58.932Z,64.20
2019-02-18T11:36:29.226Z,58.40
2019-02-18T11:38:59.500Z,62.17
2019-02-18T11:41:29.799Z,62.40
2019-02-18T11:44:00.439Z,58.03
2019-02-18T11:46:30.743Z,60.97
2019-02-18T11:49:01.071Z,59.43
2019-02-18T11:51:32.338Z,57.97
2019-02-18T11:54:02.632Z,60.97
2019-02-18T11:56:32.935Z,67.17
2019-02-18T11:59:03.360Z,61.07
2019-02-18T12:01:33.647Z,59.23
2019-02-18T12:04:03.960Z,56.47
2019-02-18T12:06:34.260Z,49.87
2019-02-18T12:09:04.933Z,52.30
2019-02-18T12:11:38.024Z,55.40
2019-02-18T12:14:07.430Z,49.87
2019-02-18T12:16:37.753Z,53.83
2019-02-18T12:19:08.054Z,47.93
2019-02-18T12:21:38.440Z,54.57
2019-02-18T12:24:08.696Z,46.90
2019-02-18T12:26:39.028Z,47.23
2019-02-18T12:29:09.625Z,47.03
2019-02-18T12:31:39.971Z,47.83
2019-02-18T12:34:10.245Z,54.77
2019-02-18T12:36:40.549Z,55.17
2019-02-18T12:39:12.880Z,51.83
2019-02-18T12:41:48.554Z,49.20
2019-02-18T12:44:15.149Z,51.07
2019-02-18T12:46:45.450Z,56.97
2019-02-18T12:49:15.749Z,51.47
2019-02-18T12:51:46.494Z,47.67
2019-02-18T12:54:16.806Z,51.13
2019-02-18T12:56:47.169Z,42.67
2019-02-18T12:59:18.936Z,50.93
2019-02-18T13:01:49.244Z,47.83
2019-02-18T13:04:19.835Z,48.63
2019-02-18T13:06:50.159Z,49.37
2019-02-18T13:09:20.477Z,51.53
2019-02-18T13:11:58.787Z,46.50
2019-02-18T13:14:22.764Z,48.50
2019-02-18T13:16:53.120Z,53.30
2019-02-18T13:19:23.482Z,45.07
2019-02-18T13:21:53.820Z,51.27
2019-02-18T13:24:24.290Z,48.57
2019-02-18T13:26:54.613Z,49.90
2019-02-18T13:29:25.085Z,54.63
2019-02-18T13:31:55.393Z,46.53
2019-02-18T13:34:25.654Z,47.30
2019-02-18T13:36:57.333Z,47.93
2019-02-18T13:39:27.635Z,41.90
2019-02-18T13:41:57.941Z,46.40
2019-02-18T13:44:28.249Z,52.07
2019-02-18T13:46:58.578Z,51.87
2019-02-18T13:49:28.868Z,48.67
2019-02-18T13:51:59.525Z,58.97
2019-02-18T13:54:29.806Z,52.87
2019-02-18T13:57:00.116Z,47.37
2019-02-18T13:59:30.408Z,55.03
2019-02-18T14:02:00.705Z,58.80
2019-02-18T14:04:31.009Z,55.20
2019-02-18T14:07:01.368Z,80.80
2019-02-18T14:09:31.699Z,67.23
2019-02-18T14:12:02.000Z,73.33
2019-02-18T14:14:32.349Z,57.13
2019-02-18T14:17:03.712Z,62.93
2019-02-18T14:19:34.191Z,55.57
2019-02-18T14:22:05.982Z,56.80
2019-02-18T14:24:36.273Z,53.70
2019-02-18T14:27:06.647Z,55.47
2019-02-18T14:29:36.934Z,54.30
2019-02-18T14:32:07.619Z,50.57
2019-02-18T14:34:37.913Z,48.87
2019-02-18T14:37:08.250Z,55.03
2019-02-18T14:39:38.543Z,56.53
2019-02-18T14:42:08.904Z,53.30
2019-02-18T14:44:39.202Z,54.27
2019-02-18T14:47:10.561Z,57.43
2019-02-18T14:49:40.863Z,57.67
2019-02-18T14:52:11.201Z,56.53
2019-02-18T14:54:41.513Z,55.20
2019-02-18T14:57:11.832Z,50.30
2019-02-18T14:59:42.319Z,52.73
2019-02-18T15:02:12.659Z,68.90
2019-02-18T15:04:43.399Z,73.03
2019-02-18T15:07:13.699Z,137.70
2019-02-18T15:09:44.519Z,119.70
2019-02-18T15:12:14.958Z,134.33
2019-02-18T15:14:45.932Z,312.13
2019-02-18T15:17:17.301Z,289.33
2019-02-18T15:19:47.660Z,313.63
2019-02-18T15:22:19.042Z,360.90
2019-02-18T15:24:49.350Z,201.37
2019-02-18T15:27:20.204Z,345.03
2019-02-18T15:29:51.127Z,205.87
2019-02-18T15:32:21.441Z,168.13
2019-02-18T15:34:51.871Z,195.43
2019-02-18T15:37:22.888Z,474.17
2019-02-18T15:39:53.715Z,252.80
2019-02-18T15:42:24.511Z,273.70
2019-02-18T15:44:54.960Z,397.07
2019-02-18T15:47:25.486Z,299.67
2019-02-18T15:49:56.508Z,171.57
2019-02-18T15:52:27.503Z,215.77
2019-02-18T15:54:58.405Z,304.90
2019-02-18T15:57:29.024Z,219.33
2019-02-18T15:59:59.438Z,422.20
2019-02-18T16:02:29.826Z,474.13
2019-02-18T16:05:00.318Z,627.70
2019-02-18T16:07:30.837Z,210.37
2019-02-18T16:10:01.262Z,231.47
2019-02-18T16:12:33.323Z,188.40
2019-02-18T16:15:04.634Z,528.93
2019-02-18T16:17:34.964Z,361.77
2019-02-18T16:20:08.925Z,248.20
2019-02-18T16:22:39.768Z,277.23
2019-02-18T16:25:13.263Z,203.00
2019-02-18T16:27:43.755Z,289.40
2019-02-18T16:30:15.253Z,638.23
2019-02-18T16:32:46.312Z,470.60
2019-02-18T16:35:16.670Z,657.63
2019-02-18T16:37:47.458Z,305.47
2019-02-18T16:40:18.583Z,896.63
2019-02-18T16:42:58.899Z,529.67
2019-02-18T16:45:22.970Z,503.13
2019-02-18T16:47:53.735Z,414.63
2019-02-18T16:50:24.197Z,409.57
2019-02-18T16:52:54.754Z,387.70
2019-02-18T16:55:25.601Z,312.67
2019-02-18T16:57:56.326Z,275.87
2019-02-18T17:00:33.730Z,249.17
2019-02-18T17:03:04.703Z,196.13
2019-02-18T17:05:35.862Z,193.03
2019-02-18T17:08:06.662Z,134.63
2019-02-18T17:10:37.104Z,134.53
2019-02-18T17:13:08.561Z,114.83
2019-02-18T17:15:39.032Z,135.17
2019-02-18T17:18:09.534Z,133.40
2019-02-18T17:20:40.920Z,173.07
2019-02-18T17:23:12.239Z,162.83
2019-02-18T17:25:42.604Z,128.53
2019-02-18T17:28:13.136Z,135.17
2019-02-18T17:30:43.589Z,136.13
2019-02-18T17:33:21.924Z,123.10
2019-02-18T17:35:53.130Z,124.53
2019-02-18T17:38:23.600Z,129.93
2019-02-18T17:40:54.278Z,149.63
2019-02-18T17:43:24.867Z,162.10
2019-02-18T17:45:55.530Z,149.43
2019-02-18T17:48:26.612Z,120.03
2019-02-18T17:50:57.723Z,127.00
2019-02-18T17:53:28.373Z,125.73
2019-02-18T17:55:58.800Z,121.57
2019-02-18T17:58:30.045Z,114.90
2019-02-18T18:01:00.979Z,121.57
2019-02-18T18:03:31.425Z,112.43
2019-02-18T18:06:04.297Z,104.07
2019-02-18T18:08:35.111Z,95.43
2019-02-18T18:11:06.050Z,85.60
2019-02-18T18:13:36.540Z,103.37
2019-02-18T18:16:07.634Z,92.40
2019-02-18T18:18:38.570Z,97.13
2019-02-18T18:21:09.082Z,125.47
2019-02-18T18:23:39.863Z,117.13
2019-02-18T18:26:10.537Z,101.17
2019-02-18T18:28:41.693Z,87.10
2019-02-18T18:31:12.510Z,94.80
2019-02-18T18:33:43.483Z,94.30
2019-02-18T18:36:14.558Z,84.53
2019-02-18T18:38:44.975Z,77.73
2019-02-18T18:41:15.381Z,69.90
2019-02-18T18:43:46.277Z,76.93
2019-02-18T18:46:16.689Z,79.40
2019-02-18T18:48:47.701Z,83.83
2019-02-18T18:51:18.337Z,88.20
2019-02-18T18:53:49.324Z,87.80
2019-02-18T18:56:21.012Z,94.53
2019-02-18T18:58:51.565Z,98.43
2019-02-18T19:01:23.415Z,90.70
2019-02-18T19:03:54.092Z,90.27
2019-02-18T19:06:24.502Z,110.57
2019-02-18T19:08:56.698Z,99.33
2019-02-18T19:11:27.565Z,102.83
2019-02-18T19:13:59.696Z,92.37
2019-02-18T19:16:30.529Z,99.13
2019-02-18T19:19:02.873Z,100.30
2019-02-18T19:21:33.448Z,100.00
2019-02-18T19:24:03.798Z,95.10
2019-02-18T19:26:34.160Z,86.97
2019-02-18T19:29:04.804Z,83.47
2019-02-18T19:31:35.176Z,81.47
2019-02-18T19:34:06.080Z,76.77
2019-02-18T19:36:36.676Z,81.57
2019-02-18T19:39:07.285Z,77.87
2019-02-18T19:41:38.113Z,76.00
2019-02-18T19:44:08.574Z,101.97
2019-02-18T19:46:39.352Z,85.97
2019-02-18T19:49:09.753Z,85.80
2019-02-18T19:51:40.761Z,83.03
2019-02-18T19:54:11.446Z,76.33
2019-02-18T19:56:41.748Z,77.10
2019-02-18T19:59:12.274Z,102.17
2019-02-18T20:01:43.738Z,86.07
2019-02-18T20:04:16.219Z,73.33
2019-02-18T20:06:46.959Z,89.73
2019-02-18T20:09:17.528Z,76.00
2019-02-18T20:11:48.109Z,78.60
2019-02-18T20:14:19.861Z,87.93
2019-02-18T20:16:50.935Z,89.20
2019-02-18T20:19:21.445Z,86.37
2019-02-18T20:21:53.283Z,102.93
2019-02-18T20:24:24.201Z,93.40
2019-02-18T20:26:55.084Z,89.10
2019-02-18T20:29:25.595Z,88.03
2019-02-18T20:31:57.663Z,96.97
2019-02-18T20:34:28.099Z,91.13
2019-02-18T20:36:58.572Z,88.93
2019-02-18T20:39:28.951Z,83.87
2019-02-18T20:41:59.510Z,81.80
2019-02-18T20:44:30.280Z,95.23
2019-02-18T20:47:00.756Z,97.63
2019-02-18T20:49:32.293Z,82.10
2019-02-18T20:52:02.835Z,83.63
2019-02-18T20:54:33.334Z,98.63
2019-02-18T20:57:03.733Z,93.03
2019-02-18T20:59:34.182Z,193.37
2019-02-18T21:02:04.755Z,211.83
2019-02-18T21:04:36.051Z,110.87
2019-02-18T21:07:07.310Z,119.17
2019-02-18T21:09:38.094Z,112.93
2019-02-18T21:12:08.399Z,111.87
2019-02-18T21:14:38.690Z,107.50
2019-02-18T21:17:09.269Z,108.17
2019-02-18T21:19:39.653Z,104.97
2019-02-18T21:22:09.978Z,101.40
2019-02-18T21:24:40.413Z,104.93
2019-02-18T21:27:10.701Z,89.43
2019-02-18T21:29:41.383Z,89.57
2019-02-18T21:32:11.642Z,85.00
2019-02-18T21:34:41.960Z,84.07
2019-02-18T21:37:12.213Z,87.37
2019-02-18T21:39:44.005Z,87.10
2019-02-18T21:42:14.368Z,94.47
2019-02-18T21:44:44.662Z,86.13
2019-02-18T21:47:16.507Z,90.93
2019-02-18T21:49:46.790Z,91.60
2019-02-18T21:52:20.193Z,113.47
2019-02-18T21:54:51.376Z,117.73
2019-02-18T21:57:21.666Z,99.07
2019-02-18T21:59:53.029Z,100.33
2019-02-18T22:02:23.479Z,107.73
2019-02-18T22:04:53.798Z,141.07
2019-02-18T22:07:24.119Z,143.63
2019-02-18T22:09:54.796Z,154.97
2019-02-18T22:12:26.546Z,144.57
2019-02-18T22:14:57.428Z,134.63
2019-02-18T22:17:27.818Z,116.83
2019-02-18T22:19:58.094Z,139.67
2019-02-18T22:22:28.395Z,138.27
2019-02-18T22:24:58.753Z,122.13
2019-02-18T22:27:29.146Z,121.80
2019-02-18T22:29:59.440Z,119.57
2019-02-18T22:32:29.796Z,106.20
2019-02-18T22:35:00.152Z,110.40
2019-02-18T22:37:30.672Z,99.53
2019-02-18T22:40:00.979Z,118.10
2019-02-18T22:42:31.296Z,121.37
2019-02-18T22:45:01.688Z,129.33
2019-02-18T22:47:31.990Z,141.03
2019-02-18T22:50:02.301Z,144.33
2019-02-18T22:52:32.981Z,151.90
2019-02-18T22:55:03.579Z,134.07
2019-02-18T22:57:33.915Z,120.70
2019-02-18T23:00:11.911Z,110.67
2019-02-18T23:02:43.857Z,100.40
2019-02-18T23:05:14.407Z,99.67
2019-02-18T23:07:44.703Z,92.50
2019-02-18T23:10:15.046Z,108.30
2019-02-18T23:12:45.343Z,97.47
2019-02-18T23:15:15.641Z,94.70
2019-02-18T23:17:46.181Z,90.07
2019-02-18T23:20:16.753Z,101.47
2019-02-18T23:22:47.044Z,94.73
2019-02-18T23:25:17.341Z,85.90
2019-02-18T23:27:47.625Z,91.57
2019-02-18T23:30:17.908Z,97.20
2019-02-18T23:32:48.193Z,95.10
2019-02-18T23:35:18.473Z,96.03
2019-02-18T23:37:48.815Z,104.70
2019-02-18T23:40:19.115Z,105.13
2019-02-18T23:42:49.414Z,105.67
2019-02-18T23:45:19.701Z,95.70
2019-02-18T23:47:50.067Z,100.77
2019-02-18T23:50:20.364Z,90.37
2019-02-18T23:52:50.646Z,89.43
2019-02-18T23:55:20.935Z,93.63
2019-02-18T23:57:51.219Z,91.40
